createdAt,value
2019-02-09T00:00:18.706Z,6.37
2019-02-09T00:02:46.934Z,7.35
2019-02-09T00:05:15.209Z,6.10
2019-02-09T00:07:43.461Z,6.47
2019-02-09T00:10:11.632Z,6.10
2019-02-09T00:12:41.217Z,6.30
2019-02-09T00:15:10.097Z,6.45
2019-02-09T00:17:38.308Z,5.90
2019-02-09T00:22:33.848Z,6.40
2019-02-09T00:25:02.075Z,7.10
2019-02-09T00:27:30.273Z,6.70
2019-02-09T00:29:58.485Z,7.47
2019-02-09T00:32:26.698Z,6.77
2019-02-09T00:34:54.929Z,7.53
2019-02-09T00:37:23.109Z,6.80
2019-02-09T00:39:51.331Z,6.23
2019-02-09T00:42:19.527Z,6.73
2019-02-09T00:44:47.748Z,6.60
2019-02-09T00:47:15.961Z,7.10
2019-02-09T00:49:44.136Z,6.47
2019-02-09T00:52:12.377Z,6.77
2019-02-09T00:54:40.582Z,7.27
2019-02-09T00:57:08.780Z,6.55
2019-02-09T00:59:36.987Z,6.97
2019-02-09T01:02:05.383Z,6.47
2019-02-09T01:04:33.665Z,6.60
2019-02-09T01:07:01.878Z,6.87
2019-02-09T01:09:30.063Z,7.30
2019-02-09T01:11:58.273Z,7.47
2019-02-09T01:14:26.483Z,7.30
2019-02-09T01:16:57.213Z,7.17
2019-02-09T01:19:25.393Z,8.30
2019-02-09T01:21:53.633Z,6.90
2019-02-09T01:24:21.845Z,7.73
2019-02-09T01:26:51.736Z,7.97
2019-02-09T01:29:19.912Z,7.60
2019-02-09T01:31:48.150Z,7.60
2019-02-09T01:34:16.322Z,6.60
2019-02-09T01:36:44.523Z,7.07
2019-02-09T01:39:12.739Z,7.30
2019-02-09T01:41:41.125Z,7.10
2019-02-09T01:44:09.337Z,6.70
2019-02-09T01:46:37.547Z,7.03
2019-02-09T01:49:05.720Z,7.40
2019-02-09T01:51:33.915Z,7.90
2019-02-09T01:54:02.140Z,7.33
2019-02-09T01:56:30.417Z,7.27
2019-02-09T01:58:58.620Z,6.33
2019-02-09T02:01:26.836Z,6.40
2019-02-09T02:03:55.020Z,6.80
2019-02-09T02:06:23.248Z,6.30
2019-02-09T02:08:51.545Z,7.40
2019-02-09T02:11:19.716Z,6.50
2019-02-09T02:13:47.933Z,6.53
2019-02-09T02:16:17.128Z,6.90
2019-02-09T02:18:45.357Z,6.43
2019-02-09T02:21:13.544Z,6.53
2019-02-09T02:23:41.723Z,6.67
2019-02-09T02:26:09.945Z,6.80
2019-02-09T02:28:38.152Z,5.90
2019-02-09T02:31:06.372Z,5.90
2019-02-09T02:33:34.693Z,5.50
2019-02-09T02:36:02.952Z,5.30
2019-02-09T02:38:31.184Z,5.27
2019-02-09T02:40:59.452Z,4.93
2019-02-09T02:43:27.635Z,5.53
2019-02-09T02:45:55.861Z,6.17
2019-02-09T02:48:24.069Z,5.40
2019-02-09T02:50:52.332Z,5.60
2019-02-09T02:53:20.541Z,5.90
2019-02-09T02:55:48.822Z,5.00
2019-02-09T02:58:17.086Z,5.23
2019-02-09T03:00:45.289Z,5.97
2019-02-09T03:03:13.498Z,5.73
2019-02-09T03:05:41.753Z,4.90
2019-02-09T03:08:09.919Z,5.00
2019-02-09T03:10:38.091Z,5.43
2019-02-09T03:13:06.329Z,5.10
2019-02-09T03:15:35.101Z,4.30
2019-02-09T03:18:04.252Z,4.63
2019-02-09T03:20:32.429Z,4.60
2019-02-09T03:23:00.595Z,4.57
2019-02-09T03:25:32.749Z,4.43
2019-02-09T03:28:00.929Z,4.17
2019-02-09T03:30:29.191Z,4.13
2019-02-09T03:32:57.650Z,3.75
2019-02-09T03:35:26.000Z,3.80
2019-02-09T03:37:54.246Z,3.80
2019-02-09T03:40:24.005Z,3.37
2019-02-09T03:42:52.247Z,3.00
2019-02-09T03:45:30.376Z,3.47
2019-02-09T03:47:58.852Z,3.20
2019-02-09T03:50:28.659Z,3.60
2019-02-09T03:52:57.167Z,3.50
2019-02-09T03:55:25.408Z,3.40
2019-02-09T03:57:53.669Z,3.93
2019-02-09T04:00:22.854Z,3.93
2019-02-09T04:02:51.265Z,3.73
2019-02-09T04:05:19.465Z,3.77
2019-02-09T04:07:47.676Z,3.60
2019-02-09T04:10:17.377Z,4.37
2019-02-09T04:12:45.573Z,3.43
2019-02-09T04:15:16.318Z,3.80
2019-02-09T04:17:44.511Z,3.90
2019-02-09T04:20:13.754Z,3.30
2019-02-09T04:22:42.001Z,3.17
2019-02-09T04:25:11.462Z,3.63
2019-02-09T04:27:39.632Z,3.60
2019-02-09T04:30:10.503Z,3.47
2019-02-09T04:32:38.897Z,4.10
2019-02-09T04:35:07.943Z,3.70
2019-02-09T04:37:36.124Z,3.50
2019-02-09T04:40:05.885Z,3.40
2019-02-09T04:42:34.085Z,3.53
2019-02-09T04:45:02.295Z,2.80
2019-02-09T04:47:30.478Z,2.77
2019-02-09T04:49:58.674Z,3.27
2019-02-09T04:52:26.897Z,2.60
2019-02-09T04:54:55.068Z,2.70
2019-02-09T04:57:23.268Z,2.60
2019-02-09T04:59:51.440Z,2.40
2019-02-09T05:02:19.630Z,2.40
2019-02-09T05:04:47.803Z,2.30
2019-02-09T05:07:16.026Z,2.10
2019-02-09T05:09:44.211Z,2.40
2019-02-09T05:12:12.380Z,2.30
2019-02-09T05:14:41.473Z,2.40
2019-02-09T05:17:10.698Z,2.10
2019-02-09T05:19:38.901Z,2.60
2019-02-09T05:22:07.072Z,2.47
2019-02-09T05:24:35.302Z,2.00
2019-02-09T05:27:04.481Z,2.40
2019-02-09T05:29:32.689Z,2.67
2019-02-09T05:32:00.876Z,2.37
2019-02-09T05:34:30.377Z,2.27
2019-02-09T05:36:58.549Z,2.57
2019-02-09T05:39:26.732Z,2.40
2019-02-09T05:41:54.933Z,2.20
2019-02-09T05:44:23.142Z,2.10
2019-02-09T05:46:51.402Z,2.57
2019-02-09T05:49:20.585Z,2.30
2019-02-09T05:51:48.985Z,2.30
2019-02-09T05:54:17.221Z,2.70
2019-02-09T05:56:45.426Z,2.60
2019-02-09T05:59:14.201Z,2.23
2019-02-09T06:01:42.437Z,2.30
2019-02-09T06:04:10.637Z,2.47
2019-02-09T06:06:38.841Z,2.87
2019-02-09T06:09:07.196Z,2.80
2019-02-09T06:11:35.486Z,3.10
2019-02-09T06:14:04.296Z,3.20
2019-02-09T06:16:32.537Z,2.50
2019-02-09T06:19:00.976Z,2.43
2019-02-09T06:21:29.153Z,2.33
2019-02-09T06:23:57.336Z,2.73
2019-02-09T06:26:25.523Z,2.53
2019-02-09T06:28:53.708Z,3.00
2019-02-09T06:31:21.945Z,3.10
2019-02-09T06:33:50.129Z,3.43
2019-02-09T06:36:18.334Z,3.27
2019-02-09T06:38:46.544Z,3.10
2019-02-09T06:41:14.753Z,3.43
2019-02-09T06:43:43.052Z,3.50
2019-02-09T06:46:11.224Z,3.77
2019-02-09T06:48:39.422Z,3.00
2019-02-09T06:51:07.626Z,3.53
2019-02-09T06:53:35.884Z,3.20
2019-02-09T06:56:04.392Z,3.10
2019-02-09T06:58:32.627Z,3.10
2019-02-09T07:01:00.841Z,3.80
2019-02-09T07:03:29.027Z,3.60
2019-02-09T07:05:57.228Z,3.80
2019-02-09T07:08:25.429Z,3.37
2019-02-09T07:10:53.646Z,3.33
2019-02-09T07:13:21.851Z,2.83
2019-02-09T07:15:50.049Z,3.40
2019-02-09T07:18:18.252Z,3.20
2019-02-09T07:20:46.525Z,3.90
2019-02-09T07:23:14.749Z,3.40
2019-02-09T07:25:42.993Z,3.50
2019-02-09T07:28:11.217Z,3.23
2019-02-09T07:30:39.392Z,3.10
2019-02-09T07:33:07.864Z,3.30
2019-02-09T07:35:36.101Z,3.50
2019-02-09T07:38:05.064Z,3.33
2019-02-09T07:40:33.244Z,3.90
2019-02-09T07:43:01.429Z,3.43
2019-02-09T07:45:30.467Z,3.63
2019-02-09T07:47:58.681Z,3.83
2019-02-09T07:50:27.495Z,4.00
2019-02-09T07:52:55.977Z,4.00
2019-02-09T07:55:25.127Z,3.57
2019-02-09T07:57:53.386Z,3.80
2019-02-09T08:00:32.170Z,3.92
2019-02-09T08:03:00.343Z,4.13
2019-02-09T08:05:29.104Z,3.87
2019-02-09T08:07:57.648Z,2.83
2019-02-09T08:10:29.941Z,3.90
2019-02-09T08:12:58.520Z,3.83
2019-02-09T08:15:28.719Z,3.60
2019-02-09T08:17:56.884Z,4.23
2019-02-09T08:20:25.960Z,4.77
2019-02-09T08:22:54.833Z,3.90
2019-02-09T08:25:43.849Z,4.30
2019-02-09T08:28:12.498Z,3.97
2019-02-09T08:30:42.731Z,4.20
2019-02-09T08:33:11.002Z,4.90
2019-02-09T08:35:40.421Z,5.70
2019-02-09T08:38:09.236Z,5.03
2019-02-09T08:40:37.438Z,3.90
2019-02-09T08:43:05.638Z,4.33
2019-02-09T08:45:34.786Z,4.97
2019-02-09T08:48:03.135Z,4.47
2019-02-09T08:50:38.865Z,4.40
2019-02-09T08:53:07.092Z,3.77
2019-02-09T08:55:35.301Z,3.73
2019-02-09T08:58:03.784Z,3.80
2019-02-09T09:00:33.128Z,4.40
2019-02-09T09:03:01.336Z,4.27
2019-02-09T09:05:29.533Z,3.87
2019-02-09T09:07:58.496Z,3.27
2019-02-09T09:10:30.559Z,3.73
2019-02-09T09:13:01.805Z,3.63
2019-02-09T09:15:31.527Z,4.07
2019-02-09T09:17:59.732Z,3.87
2019-02-09T09:20:30.340Z,3.10
2019-02-09T09:22:58.580Z,3.03
2019-02-09T09:25:26.796Z,2.83
2019-02-09T09:27:54.972Z,3.03
2019-02-09T09:30:24.374Z,2.70
2019-02-09T09:32:52.741Z,3.30
2019-02-09T09:35:21.180Z,2.97
2019-02-09T09:37:49.480Z,2.90
2019-02-09T09:40:19.187Z,2.70
2019-02-09T09:42:47.425Z,2.83
2019-02-09T09:45:17.359Z,2.70
2019-02-09T09:47:45.594Z,2.23
2019-02-09T09:50:15.596Z,2.20
2019-02-09T09:52:43.791Z,2.90
2019-02-09T09:55:11.972Z,2.00
2019-02-09T09:57:40.176Z,2.30
2019-02-09T10:00:09.883Z,2.30
2019-02-09T10:02:38.095Z,2.70
2019-02-09T10:05:07.572Z,2.03
2019-02-09T10:07:35.769Z,2.40
2019-02-09T10:10:05.521Z,2.60
2019-02-09T10:12:34.605Z,2.50
2019-02-09T10:15:03.285Z,2.15
2019-02-09T10:17:31.452Z,2.03
2019-02-09T10:19:59.717Z,2.17
2019-02-09T10:22:27.952Z,1.77
2019-02-09T10:24:56.233Z,1.90
2019-02-09T10:27:24.427Z,2.00
2019-02-09T10:29:52.634Z,2.00
2019-02-09T10:32:20.829Z,2.10
2019-02-09T10:34:49.009Z,2.10
2019-02-09T10:37:17.233Z,1.70
2019-02-09T10:39:45.475Z,1.97
2019-02-09T10:42:13.718Z,1.93
2019-02-09T10:44:42.784Z,1.80
2019-02-09T10:47:10.985Z,1.67
2019-02-09T10:49:40.105Z,1.80
2019-02-09T10:52:08.272Z,1.80
2019-02-09T10:54:36.476Z,1.80
2019-02-09T10:57:04.644Z,1.80
2019-02-09T10:59:32.819Z,1.93
2019-02-09T11:02:01.040Z,2.10
2019-02-09T11:04:29.269Z,1.83
2019-02-09T11:06:57.503Z,1.77
2019-02-09T11:09:26.625Z,1.73
2019-02-09T11:11:55.780Z,2.23
2019-02-09T11:14:24.098Z,1.50
2019-02-09T11:16:52.267Z,1.30
2019-02-09T11:19:20.497Z,1.30
2019-02-09T11:21:49.864Z,1.73
2019-02-09T11:24:18.177Z,1.50
2019-02-09T11:26:46.401Z,1.60
2019-02-09T11:29:14.592Z,1.90
2019-02-09T11:31:42.858Z,1.25
2019-02-09T11:34:11.054Z,1.67
2019-02-09T11:36:39.252Z,1.47
2019-02-09T11:39:07.507Z,1.40
2019-02-09T11:41:35.713Z,1.30
2019-02-09T11:44:04.101Z,1.23
2019-02-09T11:46:32.309Z,1.43
2019-02-09T11:49:00.523Z,1.40
2019-02-09T11:51:28.689Z,1.50
2019-02-09T11:53:56.867Z,1.70
2019-02-09T11:56:25.161Z,1.40
2019-02-09T11:58:53.359Z,1.50
2019-02-09T12:01:22.424Z,2.20
2019-02-09T12:03:50.608Z,1.47
2019-02-09T12:06:18.816Z,1.30
2019-02-09T12:08:47.028Z,2.00
2019-02-09T12:11:15.192Z,1.50
2019-02-09T12:13:43.421Z,1.70
2019-02-09T12:16:12.496Z,1.43
2019-02-09T12:18:40.695Z,1.70
2019-02-09T12:21:08.905Z,1.60
2019-02-09T12:23:37.083Z,1.17
2019-02-09T12:26:05.256Z,1.50
2019-02-09T12:28:33.468Z,1.47
2019-02-09T12:31:01.685Z,1.40
2019-02-09T12:33:29.892Z,1.40
2019-02-09T12:35:58.100Z,1.27
2019-02-09T12:38:26.280Z,1.60
2019-02-09T12:40:54.497Z,1.60
2019-02-09T12:43:22.689Z,1.40
2019-02-09T12:45:50.918Z,1.20
2019-02-09T12:48:19.091Z,1.20
2019-02-09T12:50:47.300Z,1.30
2019-02-09T12:53:15.466Z,1.40
2019-02-09T12:55:43.709Z,1.10
2019-02-09T12:58:12.810Z,1.10
2019-02-09T13:00:41.191Z,1.30
2019-02-09T13:03:13.673Z,1.17
2019-02-09T13:05:41.850Z,1.50
2019-02-09T13:08:10.024Z,1.37
2019-02-09T13:10:38.242Z,1.10
2019-02-09T13:13:06.441Z,1.23
2019-02-09T13:15:34.896Z,1.20
2019-02-09T13:18:03.117Z,1.40
2019-02-09T13:20:31.985Z,1.10
2019-02-09T13:23:00.372Z,1.50
2019-02-09T13:30:27.662Z,1.20
2019-02-09T13:32:55.934Z,1.20
2019-02-09T13:35:24.146Z,1.55
2019-02-09T13:37:52.500Z,1.67
2019-02-09T13:40:21.778Z,1.83
2019-02-09T13:42:50.147Z,1.40
2019-02-09T13:45:19.862Z,1.27
2019-02-09T13:55:11.499Z,1.43
2019-02-09T13:57:39.828Z,1.37
2019-02-09T14:00:09.569Z,1.43
2019-02-09T14:02:37.781Z,1.50
2019-02-09T14:05:07.136Z,1.23
2019-02-09T14:07:35.346Z,1.10
2019-02-09T14:10:04.892Z,1.20
2019-02-09T14:12:33.980Z,1.60
2019-02-09T14:15:02.211Z,1.40
2019-02-09T14:17:30.396Z,1.60
2019-02-09T14:19:58.596Z,1.30
2019-02-09T14:22:26.804Z,1.70
2019-02-09T14:24:55.020Z,1.25
2019-02-09T14:29:51.604Z,1.30
2019-02-09T14:32:19.800Z,1.10
2019-02-09T14:34:48.002Z,1.20
2019-02-09T14:37:16.187Z,1.30
2019-02-09T14:39:44.464Z,1.30
2019-02-09T14:42:12.687Z,1.95
2019-02-09T14:44:40.892Z,1.70
2019-02-09T14:47:09.121Z,1.90
2019-02-09T14:49:37.287Z,1.80
2019-02-09T14:52:05.560Z,1.53
2019-02-09T14:54:33.748Z,2.03
2019-02-09T14:57:01.970Z,1.90
2019-02-09T14:59:30.219Z,1.67
2019-02-09T15:01:58.466Z,1.50
2019-02-09T15:04:26.677Z,1.53
2019-02-09T15:06:54.864Z,1.20
2019-02-09T15:09:23.047Z,1.60
2019-02-09T15:11:52.196Z,1.30
2019-02-09T15:14:21.332Z,1.17
2019-02-09T15:16:49.514Z,1.30
2019-02-09T15:19:17.867Z,1.70
2019-02-09T15:21:46.078Z,1.30
2019-02-09T15:24:14.283Z,1.40
2019-02-09T15:26:42.548Z,1.30
2019-02-09T15:29:10.735Z,1.40
2019-02-09T15:31:38.977Z,1.60
2019-02-09T15:34:10.318Z,1.47
2019-02-09T15:36:37.073Z,1.50
2019-02-09T15:39:06.962Z,1.87
2019-02-09T15:41:35.156Z,1.30
2019-02-09T15:44:03.429Z,1.80
2019-02-09T15:46:31.812Z,1.43
2019-02-09T15:49:00.017Z,1.40
2019-02-09T15:51:28.205Z,2.00
2019-02-09T15:53:56.436Z,2.30
2019-02-09T15:56:24.616Z,2.57
2019-02-09T15:58:52.845Z,1.80
2019-02-09T16:01:21.026Z,2.10
2019-02-09T16:03:49.253Z,2.50
2019-02-09T16:06:17.460Z,1.70
2019-02-09T16:08:45.796Z,2.47
2019-02-09T16:11:13.963Z,1.83
2019-02-09T16:13:45.771Z,1.70
2019-02-09T16:16:12.105Z,2.00
2019-02-09T16:18:40.282Z,1.90
2019-02-09T16:21:08.518Z,1.50
2019-02-09T16:23:36.767Z,1.60
2019-02-09T16:26:04.939Z,1.80
2019-02-09T16:28:33.162Z,1.83
2019-02-09T16:31:01.397Z,1.93
2019-02-09T16:33:30.607Z,1.83
2019-02-09T16:35:58.869Z,1.93
2019-02-09T16:38:27.040Z,2.00
2019-02-09T16:40:55.258Z,1.77
2019-02-09T16:43:23.446Z,2.40
2019-02-09T16:45:51.703Z,1.53
2019-02-09T16:48:19.893Z,1.80
2019-02-09T16:53:15.465Z,2.60
2019-02-09T16:55:43.682Z,3.10
2019-02-09T16:58:11.958Z,3.00
2019-02-09T17:00:41.696Z,2.10
2019-02-09T17:03:10.500Z,2.07
2019-02-09T17:05:38.962Z,2.80
2019-02-09T17:08:07.392Z,2.33
2019-02-09T17:10:35.624Z,1.80
2019-02-09T17:13:04.588Z,1.60
2019-02-09T17:15:32.801Z,2.00
2019-02-09T17:18:01.023Z,2.40
2019-02-09T17:22:56.596Z,2.50
2019-02-09T17:25:25.356Z,2.03
2019-02-09T17:27:53.527Z,2.20
2019-02-09T17:30:23.287Z,2.75
2019-02-09T17:32:51.492Z,2.33
2019-02-09T17:35:19.814Z,2.83
2019-02-09T17:37:48.281Z,2.50
2019-02-09T17:40:18.029Z,2.13
2019-02-09T17:42:53.161Z,2.30
2019-02-09T17:45:17.670Z,2.27
2019-02-09T17:47:45.905Z,2.80
2019-02-09T17:55:10.402Z,1.60
2019-02-09T18:00:10.481Z,1.50
2019-02-09T18:02:38.728Z,1.97
2019-02-09T18:05:07.279Z,2.20
2019-02-09T18:07:35.481Z,2.10
2019-02-09T18:10:05.229Z,2.73
2019-02-09T18:12:33.461Z,2.37
2019-02-09T18:15:01.665Z,2.70
2019-02-09T18:17:29.870Z,2.70
2019-02-09T18:19:58.051Z,2.60
2019-02-09T18:22:26.255Z,2.47
2019-02-09T18:24:54.451Z,2.40
2019-02-09T18:27:22.657Z,3.00
2019-02-09T18:29:50.876Z,5.27
2019-02-09T18:32:19.048Z,2.50
2019-02-09T18:34:47.269Z,2.50
2019-02-09T18:37:15.449Z,2.93
2019-02-09T18:39:43.644Z,2.70
2019-02-09T18:42:11.824Z,3.43
2019-02-09T18:44:40.038Z,2.80
2019-02-09T18:47:08.265Z,2.10
2019-02-09T18:49:36.552Z,2.80
2019-02-09T18:52:04.781Z,2.37
2019-02-09T18:54:33.033Z,2.00
2019-02-09T18:57:01.208Z,2.90
2019-02-09T18:59:29.468Z,2.30
2019-02-09T19:01:57.696Z,2.07
2019-02-09T19:04:25.894Z,2.40
2019-02-09T19:06:54.101Z,2.30
2019-02-09T19:09:22.414Z,2.50
2019-02-09T19:11:50.708Z,2.70
2019-02-09T19:14:18.949Z,2.83
2019-02-09T19:16:47.225Z,2.20
2019-02-09T19:19:15.417Z,2.60
2019-02-09T19:21:43.617Z,2.80
2019-02-09T19:24:11.791Z,2.53
2019-02-09T19:26:39.976Z,2.63
2019-02-09T19:29:08.223Z,2.80
2019-02-09T19:31:36.427Z,2.57
2019-02-09T19:34:04.714Z,2.80
2019-02-09T19:36:32.879Z,2.87
2019-02-09T19:39:01.095Z,2.40
2019-02-09T19:41:29.293Z,2.47
2019-02-09T19:43:57.524Z,2.50
2019-02-09T19:46:25.771Z,2.30
2019-02-09T19:48:54.005Z,2.45
2019-02-09T19:51:22.209Z,2.90
2019-02-09T19:53:51.152Z,2.17
2019-02-09T19:56:20.804Z,1.87
2019-02-09T19:58:48.986Z,2.45
2019-02-09T20:03:44.682Z,2.50
2019-02-09T20:06:12.911Z,2.80
2019-02-09T20:08:41.132Z,2.43
2019-02-09T20:11:09.373Z,1.90
2019-02-09T20:13:38.515Z,2.30
2019-02-09T20:16:06.698Z,2.00
2019-02-09T20:18:34.870Z,1.87
2019-02-09T20:21:03.089Z,2.23
2019-02-09T20:23:31.267Z,2.47
2019-02-09T20:25:59.473Z,2.10
2019-02-09T20:28:27.683Z,2.67
2019-02-09T20:30:55.858Z,2.37
2019-02-09T20:33:24.069Z,2.00
2019-02-09T20:35:52.254Z,2.10
2019-02-09T20:38:20.424Z,2.10
2019-02-09T20:40:50.300Z,2.10
2019-02-09T20:43:19.643Z,2.10
2019-02-09T20:45:47.883Z,2.03
2019-02-09T20:48:16.078Z,2.40
2019-02-09T20:50:44.385Z,2.20
2019-02-09T20:53:12.556Z,2.37
2019-02-09T20:55:40.732Z,2.00
2019-02-09T20:58:09.707Z,2.10
2019-02-09T21:00:37.987Z,2.23
2019-02-09T21:03:06.232Z,2.27
2019-02-09T21:05:36.364Z,2.53
2019-02-09T21:08:05.451Z,2.27
2019-02-09T21:10:40.408Z,2.53
2019-02-09T21:13:08.597Z,2.10
2019-02-09T21:15:36.870Z,2.20
2019-02-09T21:18:05.821Z,2.20
2019-02-09T21:20:34.037Z,2.17
2019-02-09T21:23:02.261Z,2.27
2019-02-09T21:25:40.606Z,2.20
2019-02-09T21:28:08.917Z,2.35
2019-02-09T21:30:37.111Z,2.40
2019-02-09T21:33:05.947Z,2.37
2019-02-09T21:35:34.135Z,2.23
2019-02-09T21:38:02.353Z,2.50
2019-02-09T21:40:31.036Z,1.90
2019-02-09T21:42:59.679Z,2.37
2019-02-09T21:45:27.958Z,2.40
2019-02-09T21:47:56.195Z,2.50
2019-02-09T21:50:26.356Z,2.23
2019-02-09T21:52:54.581Z,2.50
2019-02-09T21:55:22.964Z,2.13
2019-02-09T21:57:51.279Z,2.27
2019-02-09T22:00:26.320Z,2.50
2019-02-09T22:02:55.011Z,1.87
2019-02-09T22:05:23.257Z,2.20
2019-02-09T22:07:51.458Z,2.47
2019-02-09T22:10:20.632Z,2.13
2019-02-09T22:12:48.905Z,2.27
2019-02-09T22:15:18.776Z,2.20
2019-02-09T22:17:46.970Z,2.10
2019-02-09T22:20:16.739Z,2.03
2019-02-09T22:22:45.108Z,1.90
2019-02-09T22:25:14.854Z,2.20
2019-02-09T22:27:43.416Z,2.37
2019-02-09T22:30:13.336Z,2.00
2019-02-09T22:32:41.824Z,2.00
2019-02-09T22:35:10.305Z,2.03
2019-02-09T22:37:38.508Z,2.00
2019-02-09T22:40:08.275Z,2.27
2019-02-09T22:42:36.491Z,2.20
2019-02-09T22:45:06.221Z,3.37
2019-02-09T22:47:34.425Z,2.23
2019-02-09T22:50:02.633Z,2.67
2019-02-09T22:52:31.197Z,2.17
2019-02-09T22:55:00.625Z,2.27
2019-02-09T22:57:28.820Z,2.10
2019-02-09T22:59:57.036Z,2.13
2019-02-09T23:02:25.248Z,2.47
2019-02-09T23:04:53.912Z,1.93
2019-02-09T23:07:22.100Z,3.17
2019-02-09T23:09:50.276Z,2.63
2019-02-09T23:12:18.501Z,2.17
2019-02-09T23:14:46.696Z,2.30
2019-02-09T23:17:14.878Z,2.40
2019-02-09T23:19:43.092Z,2.40
2019-02-09T23:22:11.264Z,2.20
2019-02-09T23:24:40.332Z,2.60
2019-02-09T23:27:08.528Z,2.57
2019-02-09T23:29:36.711Z,2.07
2019-02-09T23:32:04.959Z,2.07
2019-02-09T23:34:33.128Z,2.37
2019-02-09T23:37:01.353Z,2.30
2019-02-09T23:39:29.531Z,3.27
2019-02-09T23:41:57.725Z,2.30
2019-02-09T23:44:25.910Z,2.70
2019-02-09T23:46:54.100Z,2.40
2019-02-09T23:49:22.306Z,2.63
2019-02-09T23:51:50.492Z,2.50
2019-02-09T23:54:18.667Z,2.53
2019-02-09T23:56:46.859Z,2.07
2019-02-09T23:59:15.077Z,3.00
